RJTE(METAR)
12/04 19:00
METAR RJTE 041000Z 36003KT 280V090 9999 FEW030 SCT120 14/06 Q1017
RMK 1CU030 4AC120 A3006=
戻る
トップページへ戻る
IMOC Co,.Ltd.